Time;durP1;ratioP1;P1;durP2;ratioP2;P2;SDS_P1;SDS_P2;PMS_P1;PMS_P2;Temp;Humidity;BMP_temperature;BMP_pressure;BME280_temperature;BME280_humidity;BME280_pressure;Samples;Min_cycle;Max_cycle;Signal;HPM_P1;HPM_P2
2023/04/24 01:08:55;;;;;;;17.30;12.77;;;;;;;;;;5663639;23;20131;-94
2023/04/24 04:15:59;;;;;;;21.50;18.00;;;;;;;;;;5251726;24;20269;31
2023/04/24 04:46:38;;;;;;;20.50;16.35;;;;;;;;;;5334185;23;20109;-93
2023/04/24 04:49:08;;;;;;;20.75;17.08;;;;;;;;;;4911167;29;20033;-94
2023/04/24 04:51:37;;;;;;;21.55;18.27;;;;;;;;;;4882630;29;20049;-94
2023/04/24 04:54:50;;;;;;;23.60;17.33;;;;;;;;;;4909700;29;20029;-92
2023/04/24 04:57:36;;;;;;;19.55;17.50;;;;;;;;;;4822988;29;20039;-93
2023/04/24 05:00:04;;;;;;;19.40;16.55;;;;;;;;;;4832473;29;20047;-93
2023/04/24 05:37:11;;;;;;;19.00;13.15;;;;;;;;;;5436886;23;19932;-94
2023/04/24 05:40:27;;;;;;;18.42;13.63;;;;;;;;;;4877456;29;20057;-94
2023/04/24 06:06:43;;;;;;;60.97;45.35;;;;;;;;;;5158287;24;20041;-92
2023/04/24 06:19:56;;;;;;;16.95;13.52;;;;;;;;;;5714167;23;20073;-96
2023/04/24 06:57:50;;;;;;;9.18;8.27;;;;;;;;;;4976852;23;20560;-93
2023/04/24 07:00:24;;;;;;;8.50;7.70;;;;;;;;;;4903849;29;20051;-93
2023/04/24 07:12:56;;;;;;;;;;;;;;;;;;;;;
2023/04/24 07:15:23;;;;;;;8.90;7.32;;;;;;;;;;4839795;29;20069;-93
2023/04/24 07:17:50;;;;;;;11.48;7.22;;;;;;;;;;5685701;23;20028;-93
2023/04/24 07:20:56;;;;;;;9.20;7.05;;;;;;;;;;4883894;29;20033;-94
2023/04/24 07:34:51;;;;;;;;;;;;;;;;;;;;;
2023/04/24 07:38:04;;;;;;;11.45;6.90;;;;;;;;;;4862985;29;20061;-94
2023/04/24 07:40:16;;;;;;;8.98;6.35;;;;;;;;;;4868404;29;20140;-92
2023/04/24 07:43:02;;;;;;;10.82;7.72;;;;;;;;;;4869441;29;20037;-95
2023/04/24 07:49:19;;;;;;;9.20;7.90;;;;;;;;;;4768151;29;20049;-94
2023/04/24 07:52:06;;;;;;;9.73;7.35;;;;;;;;;;4753719;30;20044;-95
2023/04/24 08:03:34;;;;;;;12.32;8.80;;;;;;;;;;4883552;29;20044;-92
2023/04/24 08:08:37;;;;;;;8.40;7.38;;;;;;;;;;5552800;23;20057;-93
2023/04/24 08:11:03;;;;;;;14.35;8.35;;;;;;;;;;4903823;29;20031;-93
2023/04/24 08:17:46;;;;;;;10.93;8.68;;;;;;;;;;4886731;29;20065;-94
2023/04/24 08:20:21;;;;;;;12.00;9.30;;;;;;;;;;4871340;29;20044;-94
2023/04/24 08:22:51;;;;;;;13.55;9.95;;;;;;;;;;4901078;29;20029;-93
2023/04/24 08:25:20;;;;;;;11.63;9.20;;;;;;;;;;4904782;29;20052;-95
2023/04/24 08:27:49;;;;;;;14.13;11.10;;;;;;;;;;4885827;29;20029;-93
2023/04/24 08:39:05;;;;;;;11.93;9.63;;;;;;;;;;5639143;23;20616;-91
2023/04/24 08:47:59;;;;;;;9.00;7.53;;;;;;;;;;4858062;29;20109;-93
2023/04/24 09:01:49;;;;;;;9.32;7.95;;;;;;;;;;4818708;29;20180;-91
2023/04/24 09:04:34;;;;;;;;;;;;;;;;;;;;;
2023/04/24 09:10:24;;;;;;;10.75;8.00;;;;;;;;;;4851004;29;20045;-93
2023/04/24 09:13:01;;;;;;;9.20;8.30;;;;;;;;;;4853165;29;20036;-94
2023/04/24 09:15:31;;;;;;;8.93;8.02;;;;;;;;;;4850419;29;20064;-94
2023/04/24 09:27:08;;;;;;;11.63;10.27;;;;;;;;;;4870453;29;20053;-93
2023/04/24 09:29:39;;;;;;;11.80;10.60;;;;;;;;;;4882273;29;20490;-94
2023/04/24 09:36:09;;;;;;;9.43;5.82;;;;;;;;;;4816504;29;20065;-92
2023/04/24 09:39:25;;;;;;;12.02;7.10;;;;;;;;;;4809750;29;20102;-94
2023/04/24 09:42:29;;;;;;;9.70;6.03;;;;;;;;;;4797880;29;20520;-95
2023/04/24 10:47:18;;;;;;;4.55;2.45;;;;;;;;;;5944633;23;20032;-94
2023/04/24 11:01:57;;;;;;;4.18;3.10;;;;;;;;;;5619078;24;20076;-95
2023/04/24 11:04:38;;;;;;;4.55;3.00;;;;;;;;;;4891344;29;20041;-96
2023/04/24 11:17:18;;;;;;;5.37;2.10;;;;;;;;;;4936909;23;20060;-93
2023/04/24 11:33:38;;;;;;;2.63;1.90;;;;;;;;;;4989858;23;20062;-94
2023/04/24 11:48:17;;;;;;;2.25;0.60;;;;;;;;;;4879868;29;20069;-92
2023/04/24 12:35:07;;;;;;;1.10;0.50;;;;;;;;;;5763187;23;20410;-94
2023/04/24 12:37:36;;;;;;;2.20;0.93;;;;;;;;;;4886024;29;20041;-93
2023/04/24 12:40:09;;;;;;;2.95;0.80;;;;;;;;;;4884742;29;20045;-95
2023/04/24 12:42:38;;;;;;;;;;;;;;;;;;4881464;29;20040;-95
2023/04/24 12:48:34;;;;;;;;;;;;;;;;;;;;;
2023/04/24 13:11:21;;;;;;;3.92;1.33;;;;;;;;;;4848869;29;20037;-96
2023/04/24 13:16:49;;;;;;;2.88;0.80;;;;;;;;;;4847925;29;20086;-94
2023/04/24 13:19:19;;;;;;;2.53;0.40;;;;;;;;;;4840880;29;20050;-94
2023/04/24 13:24:32;;;;;;;2.97;0.68;;;;;;;;;;5276304;23;20052;-94
2023/04/24 13:26:58;;;;;;;3.22;0.40;;;;;;;;;;4907115;29;20053;-93
2023/04/24 13:29:42;;;;;;;5.30;0.90;;;;;;;;;;4906337;29;20033;-96
2023/04/24 13:32:09;;;;;;;2.53;0.55;;;;;;;;;;4886151;29;20374;-94
2023/04/24 13:34:36;;;;;;;4.90;0.90;;;;;;;;;;4883883;29;20474;-96
2023/04/24 13:37:08;;;;;;;2.35;0.70;;;;;;;;;;4899249;29;20033;-94
2023/04/24 13:39:35;;;;;;;2.05;0.50;;;;;;;;;;4903321;29;20518;-96
2023/04/24 13:42:13;;;;;;;3.33;0.30;;;;;;;;;;4881184;29;20035;-96
2023/04/24 13:44:54;;;;;;;1.63;0.30;;;;;;;;;;4884838;29;20053;-95
2023/04/24 13:47:20;;;;;;;1.25;0.30;;;;;;;;;;4898103;29;20128;-94
2023/04/24 13:49:46;;;;;;;2.47;0.50;;;;;;;;;;4879753;29;20060;-92
2023/04/24 13:52:15;;;;;;;1.50;0.50;;;;;;;;;;4880091;29;20033;-95
2023/04/24 13:54:55;;;;;;;10.48;1.73;;;;;;;;;;4881108;29;20025;-95
2023/04/24 13:57:30;;;;;;;1.52;0.50;;;;;;;;;;4880972;29;20037;-93
2023/04/24 14:00:20;;;;;;;2.08;0.60;;;;;;;;;;4897982;29;20458;-94
2023/04/24 14:02:50;;;;;;;0.88;0.32;;;;;;;;;;4875852;29;20037;-94
2023/04/24 14:05:16;;;;;;;4.40;0.80;;;;;;;;;;4907275;29;20037;-92
2023/04/24 14:07:51;;;;;;;1.67;0.50;;;;;;;;;;4928064;29;20041;-93
2023/04/24 14:10:55;;;;;;;1.13;0.50;;;;;;;;;;4913178;29;20040;-92
2023/04/24 14:27:24;;;;;;;1.40;0.60;;;;;;;;;;4876237;29;20045;-96
2023/04/24 14:29:56;;;;;;;1.02;0.52;;;;;;;;;;4888479;29;20070;-95
2023/04/24 14:32:40;;;;;;;2.70;0.73;;;;;;;;;;4873392;29;20089;-96
2023/04/24 14:46:54;;;;;;;;;;;;;;;;;;;;;
2023/04/24 14:49:33;;;;;;;2.10;0.70;;;;;;;;;;4890384;23;20146;-93
2023/04/24 14:55:24;;;;;;;2.42;0.73;;;;;;;;;;4868573;29;20069;-95
2023/04/24 14:57:50;;;;;;;2.80;0.88;;;;;;;;;;4846731;29;20067;-96
2023/04/24 15:00:43;;;;;;;2.70;1.00;;;;;;;;;;4840939;29;20018;-94
2023/04/24 15:03:21;;;;;;;2.20;0.80;;;;;;;;;;5792996;23;20028;-90
2023/04/24 15:09:01;;;;;;;2.75;1.10;;;;;;;;;;4850664;29;20106;-94
2023/04/24 15:11:27;;;;;;;1.92;1.13;;;;;;;;;;4847392;29;20037;-92
2023/04/24 15:13:53;;;;;;;3.60;1.00;;;;;;;;;;4874577;29;20048;-93
2023/04/24 15:16:23;;;;;;;1.80;1.20;;;;;;;;;;4889494;29;20037;-95
2023/04/24 15:19:19;;;;;;;1.92;0.93;;;;;;;;;;4907731;29;20101;-96
2023/04/24 15:21:51;;;;;;;2.38;0.80;;;;;;;;;;4880999;29;20037;-95
2023/04/24 15:24:17;;;;;;;2.33;0.88;;;;;;;;;;4909224;23;20060;-94
2023/04/24 15:26:46;;;;;;;2.20;0.70;;;;;;;;;;4995133;23;20712;-94
2023/04/24 15:29:13;;;;;;;1.17;0.68;;;;;;;;;;4902405;29;20405;-95
2023/04/24 15:31:40;;;;;;;1.45;0.60;;;;;;;;;;4983162;23;20148;-93
2023/04/24 15:34:17;;;;;;;2.97;0.70;;;;;;;;;;4885581;29;20103;-93
2023/04/24 15:36:54;;;;;;;2.88;0.70;;;;;;;;;;4880412;29;20046;-93
2023/04/24 15:39:30;;;;;;;1.42;0.60;;;;;;;;;;4868930;29;20037;-93
2023/04/24 15:42:05;;;;;;;3.83;2.50;;;;;;;;;;4861956;29;20090;-92
2023/04/24 15:44:35;;;;;;;3.55;0.80;;;;;;;;;;4896281;23;20553;-95
2023/04/24 15:47:14;;;;;;;1.25;0.52;;;;;;;;;;4965145;23;20029;-95
2023/04/24 15:49:41;;;;;;;2.05;0.60;;;;;;;;;;4898712;29;20128;-94
2023/04/24 15:52:09;;;;;;;1.60;0.40;;;;;;;;;;4935085;23;20040;-94
2023/04/24 15:54:57;;;;;;;2.20;0.60;;;;;;;;;;4967831;23;20044;-94
2023/04/24 15:57:23;;;;;;;2.50;0.47;;;;;;;;;;4901849;29;20029;-95
2023/04/24 15:59:59;;;;;;;1.95;0.57;;;;;;;;;;4889984;29;20081;-95
2023/04/24 16:02:28;;;;;;;1.27;0.50;;;;;;;;;;4888421;29;20093;-95
2023/04/24 16:04:54;;;;;;;1.17;0.40;;;;;;;;;;4901042;29;20094;-93
2023/04/24 16:07:22;;;;;;;1.52;0.55;;;;;;;;;;4891969;29;20033;-91
2023/04/24 16:09:48;;;;;;;1.35;0.70;;;;;;;;;;4888249;29;20045;-94
2023/04/24 16:12:16;;;;;;;0.93;0.40;;;;;;;;;;4883608;29;20037;-95
2023/04/24 16:14:43;;;;;;;1.67;0.47;;;;;;;;;;4884447;29;20005;-93
2023/04/24 16:17:16;;;;;;;1.60;0.60;;;;;;;;;;4894228;29;20067;-95
2023/04/24 16:19:51;;;;;;;2.65;1.27;;;;;;;;;;4891207;29;20037;-95
2023/04/24 16:25:26;;;;;;;3.40;1.67;;;;;;;;;;4885502;29;20070;-95
2023/04/24 16:28:13;;;;;;;2.88;1.30;;;;;;;;;;4898708;29;20021;-96
2023/04/24 16:30:55;;;;;;;;;;;;;;;;;;;;;
2023/04/24 16:36:51;;;;;;;2.70;1.10;;;;;;;;;;4846994;29;20030;-93
2023/04/24 16:39:47;;;;;;;5.35;1.30;;;;;;;;;;4853320;29;20050;-96
2023/04/24 16:42:14;;;;;;;1.83;0.70;;;;;;;;;;4806787;29;20106;-94
2023/04/24 16:45:05;;;;;;;4.53;1.60;;;;;;;;;;4822117;29;20050;-96
2023/04/24 16:47:51;;;;;;;4.40;1.30;;;;;;;;;;5388254;23;20053;-94
2023/04/24 16:50:28;;;;;;;4.50;1.65;;;;;;;;;;4887398;29;20028;-95
2023/04/24 16:53:04;;;;;;;3.35;1.10;;;;;;;;;;4889581;29;20024;-96
2023/04/24 16:55:32;;;;;;;3.65;1.00;;;;;;;;;;4881564;29;20033;-96
2023/04/24 16:58:01;;;;;;;1.35;0.70;;;;;;;;;;4892863;29;20032;-94
2023/04/24 17:00:37;;;;;;;2.95;1.30;;;;;;;;;;4880493;29;20085;-94
2023/04/24 17:03:03;;;;;;;3.58;2.40;;;;;;;;;;4883467;29;20021;-94
2023/04/24 17:05:30;;;;;;;4.03;1.55;;;;;;;;;;4879261;29;20033;-92
2023/04/24 17:07:56;;;;;;;6.00;2.78;;;;;;;;;;4879582;29;20406;-93
2023/04/24 17:10:38;;;;;;;5.28;2.90;;;;;;;;;;4878210;29;20132;-93
2023/04/24 17:13:07;;;;;;;5.15;3.10;;;;;;;;;;4887297;29;20048;-95
2023/04/24 17:24:13;;;;;;;1.73;0.70;;;;;;;;;;4860382;29;20082;-94
2023/04/24 17:26:40;;;;;;;2.05;1.00;;;;;;;;;;4861259;29;20055;-94
2023/04/24 17:29:08;;;;;;;3.13;1.23;;;;;;;;;;4872306;29;20115;-95
2023/04/24 17:31:34;;;;;;;3.42;1.67;;;;;;;;;;4865131;29;20053;-92
2023/04/24 17:34:01;;;;;;;3.45;1.95;;;;;;;;;;4859741;29;20044;-93
2023/04/24 17:36:27;;;;;;;6.97;2.95;;;;;;;;;;4860449;29;20567;-95
2023/04/24 17:38:53;;;;;;;7.32;3.97;;;;;;;;;;4860444;29;20105;-93
2023/04/24 17:41:20;;;;;;;6.50;2.08;;;;;;;;;;4860499;29;20132;-95
2023/04/24 17:43:48;;;;;;;2.00;1.10;;;;;;;;;;4863911;29;20037;-95
2023/04/24 17:46:14;;;;;;;2.08;0.90;;;;;;;;;;4866448;29;20101;-94
2023/04/24 17:48:40;;;;;;;3.13;1.08;;;;;;;;;;4864059;29;20030;-93
2023/04/24 17:51:07;;;;;;;1.50;0.70;;;;;;;;;;4866583;29;20044;-91
2023/04/24 17:53:33;;;;;;;2.00;1.00;;;;;;;;;;4871355;29;20033;-92
2023/04/24 17:56:02;;;;;;;2.20;0.80;;;;;;;;;;4864236;29;20078;-92
2023/04/24 17:58:30;;;;;;;2.42;0.90;;;;;;;;;;4863254;29;20037;-94
2023/04/24 18:00:59;;;;;;;2.15;0.90;;;;;;;;;;4863380;29;20523;-95
2023/04/24 18:03:27;;;;;;;2.85;0.90;;;;;;;;;;4863719;29;20036;-94
2023/04/24 18:05:56;;;;;;;2.08;0.90;;;;;;;;;;4861829;29;20045;-94
2023/04/24 18:08:24;;;;;;;2.10;0.70;;;;;;;;;;4861493;29;20128;-95
2023/04/24 18:11:25;;;;;;;1.63;0.77;;;;;;;;;;4865965;29;20025;-96
2023/04/24 18:13:51;;;;;;;1.38;0.70;;;;;;;;;;4865780;29;20033;-95
2023/04/24 18:16:38;;;;;;;1.73;0.80;;;;;;;;;;4867179;29;20026;-93
2023/04/24 18:19:04;;;;;;;1.17;0.52;;;;;;;;;;4867279;29;20052;-94
2023/04/24 18:21:30;;;;;;;2.00;0.80;;;;;;;;;;4868037;29;20028;-92
2023/04/24 18:23:59;;;;;;;2.00;0.90;;;;;;;;;;4870546;29;20060;-92
2023/04/24 18:26:31;;;;;;;1.90;0.85;;;;;;;;;;5149656;23;20449;-93
2023/04/24 18:38:08;;;;;;;;;;;;;;;;;;;;;
2023/04/24 18:41:00;;;;;;;1.88;0.90;;;;;;;;;;4874729;29;20030;-95
2023/04/24 18:43:30;;;;;;;1.52;0.85;;;;;;;;;;4868126;29;20038;-93
2023/04/24 18:46:20;;;;;;;2.47;0.63;;;;;;;;;;5107933;23;20069;-92
2023/04/24 18:48:55;;;;;;;1.63;0.90;;;;;;;;;;4894318;29;20040;-95
2023/04/24 18:54:15;;;;;;;2.05;1.10;;;;;;;;;;4889030;29;20132;-94
2023/04/24 18:56:41;;;;;;;1.80;0.90;;;;;;;;;;4882752;29;20041;-96
2023/04/24 18:59:10;;;;;;;1.48;0.90;;;;;;;;;;4871207;29;20139;-94
2023/04/24 19:01:44;;;;;;;2.10;0.93;;;;;;;;;;4887655;29;20041;-94
2023/04/24 19:04:20;;;;;;;2.03;0.73;;;;;;;;;;4888790;29;20048;-94
2023/04/24 19:06:57;;;;;;;2.70;1.00;;;;;;;;;;4895961;29;20048;-93
2023/04/24 19:10:05;;;;;;;;;;;;;;;;;;;;;
2023/04/24 19:12:55;;;;;;;2.22;0.80;;;;;;;;;;4877282;29;20108;-94
2023/04/24 19:15:39;;;;;;;1.60;0.90;;;;;;;;;;4882649;29;20029;-94
2023/04/24 19:18:32;;;;;;;1.30;0.70;;;;;;;;;;4883089;29;20033;-95
2023/04/24 19:21:01;;;;;;;1.77;0.60;;;;;;;;;;4875631;29;20036;-93
2023/04/24 19:23:56;;;;;;;;;;;;;;;;;;;;;
2023/04/24 19:29:59;;;;;;;3.17;0.85;;;;;;;;;;4886282;29;20084;-95
2023/04/24 19:32:46;;;;;;;1.40;0.80;;;;;;;;;;4893790;29;20029;-94
2023/04/24 19:44:38;;;;;;;1.20;0.70;;;;;;;;;;4867021;29;20045;-95
2023/04/24 19:47:31;;;;;;;1.52;0.90;;;;;;;;;;4876071;29;20014;-95
2023/04/24 19:50:13;;;;;;;1.50;0.82;;;;;;;;;;4875502;29;20048;-94
2023/04/24 19:53:05;;;;;;;5.25;0.93;;;;;;;;;;4859898;29;20044;-96
2023/04/24 20:02:05;;;;;;;2.25;1.23;;;;;;;;;;4880362;29;20037;-94
2023/04/24 20:04:56;;;;;;;3.35;1.20;;;;;;;;;;4867059;29;20045;-95
2023/04/24 20:13:23;;;;;;;2.25;1.40;;;;;;;;;;4870226;29;20045;-94
2023/04/24 20:15:51;;;;;;;4.85;1.80;;;;;;;;;;4856002;29;20033;-95
2023/04/24 20:18:20;;;;;;;4.10;1.67;;;;;;;;;;4851583;29;20036;-94
2023/04/24 20:21:02;;;;;;;2.53;1.55;;;;;;;;;;4851557;29;20105;-93
2023/04/24 20:23:54;;;;;;;2.30;1.40;;;;;;;;;;4855277;29;20045;-95
2023/04/24 20:26:31;;;;;;;3.33;1.63;;;;;;;;;;4854208;29;20049;-94
2023/04/24 20:29:11;;;;;;;3.03;1.40;;;;;;;;;;4853695;29;20038;-94
2023/04/24 20:34:54;;;;;;;4.45;1.40;;;;;;;;;;4862830;29;20038;-95
2023/04/24 20:37:48;;;;;;;2.80;1.40;;;;;;;;;;4856288;29;20029;-95
2023/04/24 20:40:15;;;;;;;3.35;1.52;;;;;;;;;;4871149;29;20418;-95
2023/04/24 20:43:01;;;;;;;;;;;;;;;;;;;;;
2023/04/24 20:45:35;;;;;;;3.33;2.00;;;;;;;;;;4881387;29;20025;-94
2023/04/24 20:48:01;;;;;;;3.83;2.13;;;;;;;;;;4887898;29;20032;-94
2023/04/24 20:50:27;;;;;;;2.88;1.70;;;;;;;;;;4883134;29;20044;-94
2023/04/24 20:52:56;;;;;;;3.90;1.70;;;;;;;;;;4896336;29;20068;-95
2023/04/24 20:55:24;;;;;;;3.13;1.77;;;;;;;;;;4879477;29;20116;-95
2023/04/24 20:57:51;;;;;;;3.45;1.48;;;;;;;;;;4878563;29;20044;-95
2023/04/24 21:00:18;;;;;;;2.40;1.58;;;;;;;;;;4893854;29;20041;-95
2023/04/24 21:02:44;;;;;;;2.83;1.50;;;;;;;;;;4895376;29;20037;-95
2023/04/24 21:05:10;;;;;;;2.72;1.55;;;;;;;;;;4895869;29;20036;-93
2023/04/24 21:07:41;;;;;;;2.60;1.60;;;;;;;;;;4895032;29;20037;-96
2023/04/24 21:10:12;;;;;;;2.88;1.50;;;;;;;;;;4895084;29;20029;-95
2023/04/24 21:13:02;;;;;;;3.63;1.75;;;;;;;;;;4896315;29;20033;-94
2023/04/24 21:15:30;;;;;;;2.70;1.85;;;;;;;;;;4881738;29;20048;-94
2023/04/24 21:18:00;;;;;;;3.53;1.92;;;;;;;;;;4887774;29;20155;-92
2023/04/24 21:20:26;;;;;;;3.65;1.85;;;;;;;;;;4918408;29;20053;-95
2023/04/24 21:22:54;;;;;;;3.30;1.92;;;;;;;;;;4887508;29;20036;-95
2023/04/24 21:25:20;;;;;;;5.03;2.13;;;;;;;;;;4885392;29;20071;-94
2023/04/24 21:27:49;;;;;;;3.08;1.67;;;;;;;;;;4900493;29;20029;-95
2023/04/24 21:30:37;;;;;;;2.95;1.77;;;;;;;;;;4886907;29;20049;-96
2023/04/24 21:33:06;;;;;;;3.95;1.95;;;;;;;;;;4884460;29;20066;-96
2023/04/24 21:35:49;;;;;;;3.78;1.80;;;;;;;;;;4886480;29;20041;-96
2023/04/24 21:38:23;;;;;;;2.80;1.80;;;;;;;;;;4903653;29;20364;-95
2023/04/24 21:44:17;;;;;;;3.28;1.60;;;;;;;;;;4869551;29;20116;-96
2023/04/24 21:49:35;;;;;;;3.53;1.90;;;;;;;;;;4861267;29;20570;-95
2023/04/24 21:52:07;;;;;;;3.15;1.67;;;;;;;;;;4894629;29;20029;-96
2023/04/24 21:57:27;;;;;;;3.33;1.70;;;;;;;;;;4897454;29;20033;-96
2023/04/24 21:59:56;;;;;;;5.88;1.75;;;;;;;;;;4889165;29;20081;-95
2023/04/24 22:02:38;;;;;;;2.85;1.80;;;;;;;;;;4900910;29;20029;-95
2023/04/24 22:08:01;;;;;;;7.30;1.92;;;;;;;;;;4886761;29;20037;-96
2023/04/24 22:13:25;;;;;;;2.75;1.80;;;;;;;;;;4892491;29;20059;-94
2023/04/24 22:16:19;;;;;;;3.33;1.70;;;;;;;;;;4911662;29;20040;-96
2023/04/24 22:18:54;;;;;;;3.60;1.67;;;;;;;;;;4846151;29;20085;-96
2023/04/24 22:21:24;;;;;;;4.38;1.95;;;;;;;;;;4864523;29;20045;-95
2023/04/24 22:23:50;;;;;;;4.15;1.80;;;;;;;;;;4847808;29;20097;-95
2023/04/24 22:26:24;;;;;;;3.75;1.83;;;;;;;;;;4847928;29;20029;-94
2023/04/24 22:28:55;;;;;;;2.33;1.70;;;;;;;;;;4848655;29;20041;-94
2023/04/24 22:31:39;;;;;;;;;;;;;;;;;;;;;
2023/04/24 22:34:18;;;;;;;2.30;1.60;;;;;;;;;;4885459;29;20108;-94
2023/04/24 22:37:04;;;;;;;4.75;1.90;;;;;;;;;;4887260;29;20518;-96
2023/04/24 22:46:01;;;;;;;3.25;1.67;;;;;;;;;;4877307;29;20049;-96
2023/04/24 22:48:36;;;;;;;5.82;1.83;;;;;;;;;;4869968;29;20491;-95
2023/04/24 22:51:05;;;;;;;2.47;1.63;;;;;;;;;;4880984;29;20037;-96
2023/04/24 22:53:55;;;;;;;3.55;1.70;;;;;;;;;;4870086;29;20136;-95
2023/04/24 22:56:27;;;;;;;4.68;1.85;;;;;;;;;;4892238;29;20040;-96
2023/04/24 22:59:31;;;;;;;3.25;1.70;;;;;;;;;;4874263;29;20045;-96
2023/04/24 23:02:13;;;;;;;1.98;1.42;;;;;;;;;;4880501;29;20057;-96
2023/04/24 23:25:31;;;;;;;3.13;1.70;;;;;;;;;;4909625;23;20057;-95
2023/04/24 23:28:16;;;;;;;3.58;1.40;;;;;;;;;;4906422;29;20051;-96
2023/04/24 23:31:25;;;;;;;;;;;;;;;;;;;;;
2023/04/24 23:34:18;;;;;;;2.75;1.58;;;;;;;;;;4891478;29;20116;-95
2023/04/24 23:56:28;;;;;;;;;;;;;;;;;;;;;
